Time;durP1;ratioP1;P1;durP2;ratioP2;P2;SDS_P1;SDS_P2;PMS_P1;PMS_P2;Temp;Humidity;BMP_temperature;BMP_pressure;BME280_temperature;BME280_humidity;BME280_pressure;Samples;Min_cycle;Max_cycle;Signal;HPM_P1;HPM_P2
2024/02/14 00:01:48;;;;;;;0.40;0.40;;;;;;;2.42;100.00;100220.69;5066200;28;20017;-65
2024/02/14 00:04:14;;;;;;;0.43;0.43;;;;;;;2.43;100.00;100208.75;5066126;28;20036;-66
2024/02/14 00:06:39;;;;;;;0.50;0.50;;;;;;;2.44;100.00;100218.16;5066246;28;20021;-67
2024/02/14 00:09:06;;;;;;;0.40;0.40;;;;;;;2.42;100.00;100220.69;5066101;28;20025;-67
2024/02/14 00:11:32;;;;;;;0.50;0.50;;;;;;;2.41;100.00;100218.94;5048277;28;20031;-66
2024/02/14 00:13:58;;;;;;;0.40;0.40;;;;;;;2.40;100.00;100224.91;5065889;28;20048;-67
2024/02/14 00:16:24;;;;;;;0.40;0.40;;;;;;;2.39;100.00;100212.94;5066060;28;20074;-67
2024/02/14 00:18:49;;;;;;;0.40;0.40;;;;;;;2.35;100.00;100212.00;5066015;28;20108;-68
2024/02/14 00:21:15;;;;;;;0.50;0.50;;;;;;;2.34;100.00;100209.41;5065675;28;20036;-67
2024/02/14 00:23:40;;;;;;;0.40;0.40;;;;;;;2.33;100.00;100216.22;5047680;28;20043;-67
2024/02/14 00:26:05;;;;;;;0.40;0.40;;;;;;;2.29;100.00;100204.16;5047398;28;20048;-67
2024/02/14 00:28:31;;;;;;;0.40;0.40;;;;;;;2.31;100.00;100215.31;5065615;28;20120;-66
2024/02/14 00:30:57;;;;;;;0.40;0.40;;;;;;;2.26;100.00;100203.22;5065782;28;20028;-66
2024/02/14 00:33:23;;;;;;;0.40;0.40;;;;;;;2.22;100.00;100197.19;5065532;28;20027;-67
2024/02/14 00:35:48;;;;;;;0.40;0.40;;;;;;;2.14;100.00;100199.56;5065388;28;20029;-67
2024/02/14 00:38:13;;;;;;;0.40;0.40;;;;;;;2.07;100.00;100185.78;5065294;28;20025;-66
2024/02/14 00:40:39;;;;;;;0.43;0.43;;;;;;;2.08;100.00;100201.97;5065380;28;20339;-67
2024/02/14 00:43:04;;;;;;;0.45;0.45;;;;;;;2.05;100.00;100207.91;5065333;28;20115;-67
2024/02/14 00:45:29;;;;;;;0.40;0.40;;;;;;;2.03;100.00;100221.50;5065332;28;20024;-67
2024/02/14 00:47:55;;;;;;;0.40;0.40;;;;;;;1.98;100.00;100213.72;5065249;28;20088;-67
2024/02/14 00:50:20;;;;;;;0.40;0.40;;;;;;;1.97;100.00;100217.09;5065183;28;20021;-66
2024/02/14 00:52:46;;;;;;;0.43;0.43;;;;;;;1.95;100.00;100218.78;5064980;28;20067;-66
2024/02/14 00:55:11;;;;;;;0.40;0.40;;;;;;;1.92;100.00;100216.09;5065799;28;20025;-66
2024/02/14 00:57:37;;;;;;;0.50;0.50;;;;;;;1.90;100.00;100215.22;5064891;28;20428;-67
2024/02/14 01:00:04;;;;;;;0.40;0.40;;;;;;;1.87;100.00;100210.88;5047322;28;20036;-67
2024/02/14 01:02:29;;;;;;;0.40;0.40;;;;;;;1.87;100.00;100215.16;5065378;28;20025;-68
2024/02/14 01:04:55;;;;;;;0.40;0.40;;;;;;;1.83;100.00;100217.66;5047057;28;20021;-68
2024/02/14 01:07:21;;;;;;;0.40;0.40;;;;;;;1.79;100.00;100210.69;5065169;28;20055;-67
2024/02/14 01:09:46;;;;;;;0.43;0.43;;;;;;;1.81;100.00;100213.28;5047055;28;20025;-67
2024/02/14 01:12:11;;;;;;;0.40;0.40;;;;;;;1.78;100.00;100214.09;5064919;28;20025;-67
2024/02/14 01:14:37;;;;;;;0.40;0.40;;;;;;;1.77;100.00;100214.06;5047316;28;20025;-67
2024/02/14 01:17:03;;;;;;;0.40;0.40;;;;;;;1.76;100.00;100225.13;5064846;28;20041;-66
2024/02/14 01:19:29;;;;;;;0.40;0.40;;;;;;;1.75;100.00;100220.81;5047204;28;20088;-67
2024/02/14 01:21:56;;;;;;;0.40;0.40;;;;;;;1.76;100.00;100217.47;5047070;28;20025;-67
2024/02/14 01:24:22;;;;;;;0.40;0.40;;;;;;;1.74;100.00;100219.97;5046989;28;20028;-67
2024/02/14 01:26:47;;;;;;;0.43;0.43;;;;;;;1.77;100.00;100220.06;5064789;28;20024;-68
2024/02/14 01:29:12;;;;;;;0.40;0.40;;;;;;;1.78;100.00;100215.78;5064788;28;20025;-67
2024/02/14 01:31:38;;;;;;;0.40;0.40;;;;;;;1.79;100.00;100218.38;5046773;28;20025;-67
2024/02/14 01:34:03;;;;;;;0.50;0.50;;;;;;;1.80;100.00;100215.00;5046779;28;20584;-67
2024/02/14 01:36:28;;;;;;;0.40;0.40;;;;;;;1.81;100.00;100216.72;5064318;28;20051;-66
2024/02/14 01:38:54;;;;;;;0.40;0.40;;;;;;;1.85;100.00;100215.13;5068545;28;20063;-67
2024/02/14 01:41:21;;;;;;;0.40;0.40;;;;;;;1.85;100.00;100215.97;5069058;28;20569;-67
2024/02/14 01:43:46;;;;;;;0.40;0.40;;;;;;;1.88;100.00;100217.75;5069006;28;20029;-67
2024/02/14 01:46:12;;;;;;;0.40;0.40;;;;;;;1.88;100.00;100215.19;5068882;28;20103;-67
2024/02/14 01:48:39;;;;;;;0.40;0.40;;;;;;;1.89;100.00;100224.59;5068449;28;20441;-67
2024/02/14 01:51:08;;;;;;;0.40;0.40;;;;;;;1.88;100.00;100220.31;5068743;28;20025;-67
2024/02/14 01:53:36;;;;;;;0.40;0.40;;;;;;;1.88;100.00;100225.44;5068811;28;20036;-66
2024/02/14 01:56:04;;;;;;;0.47;0.47;;;;;;;1.89;100.00;100227.16;5068646;28;20068;-68
2024/02/14 01:58:30;;;;;;;0.40;0.40;;;;;;;1.91;100.00;100227.19;5068588;28;20051;-67
2024/02/14 02:00:56;;;;;;;0.50;0.50;;;;;;;1.92;100.00;100223.78;5068514;28;20555;-67
2024/02/14 02:03:26;;;;;;;0.40;0.40;;;;;;;1.92;100.00;100219.56;5050619;28;20385;-67
2024/02/14 02:05:55;;;;;;;0.40;0.40;;;;;;;1.94;100.00;100222.16;5068119;28;20089;-68
2024/02/14 02:08:21;;;;;;;0.50;0.50;;;;;;;1.94;100.00;100228.13;5068402;28;20032;-67
2024/02/14 02:10:47;;;;;;;0.40;0.40;;;;;;;1.93;100.00;100218.72;5068532;28;20025;-68
2024/02/14 02:13:12;;;;;;;0.50;0.50;;;;;;;1.92;100.00;100219.56;5068436;28;20025;-67
2024/02/14 02:15:38;;;;;;;0.40;0.40;;;;;;;1.98;100.00;100229.94;5050303;28;20052;-68
2024/02/14 02:18:05;;;;;;;0.47;0.47;;;;;;;1.97;100.00;100220.53;5068247;28;20411;-67
2024/02/14 02:20:32;;;;;;;0.45;0.45;;;;;;;1.95;100.00;100217.06;5050074;28;20017;-67
2024/02/14 02:22:58;;;;;;;0.40;0.40;;;;;;;1.93;100.00;100221.25;5050358;28;20028;-67
2024/02/14 02:25:26;;;;;;;0.40;0.40;;;;;;;1.95;100.00;100227.31;5050098;28;20021;-67
2024/02/14 02:27:56;;;;;;;0.47;0.47;;;;;;;1.89;100.00;100219.47;5067674;28;20267;-67
2024/02/14 02:30:22;;;;;;;0.40;0.40;;;;;;;1.91;100.00;100217.81;5050120;28;20040;-67
2024/02/14 02:32:48;;;;;;;0.40;0.40;;;;;;;1.86;100.00;100214.28;5068337;28;20032;-67
2024/02/14 02:35:13;;;;;;;0.40;0.40;;;;;;;1.87;100.00;100216.00;5067523;28;20028;-67
2024/02/14 02:37:39;;;;;;;0.40;0.40;;;;;;;1.85;100.00;100221.09;5068100;28;20024;-67
2024/02/14 02:40:05;;;;;;;0.40;0.40;;;;;;;1.81;100.00;100214.16;5067925;28;20087;-67
2024/02/14 02:42:30;;;;;;;0.40;0.40;;;;;;;1.83;100.00;100224.44;5067755;28;20029;-67
2024/02/14 02:44:55;;;;;;;0.40;0.40;;;;;;;1.81;100.00;100226.97;5067883;28;20028;-66
2024/02/14 02:47:21;;;;;;;0.40;0.40;;;;;;;1.84;100.00;100221.06;5067390;28;20097;-66
2024/02/14 02:49:46;;;;;;;0.50;0.50;;;;;;;1.84;100.00;100221.06;5049488;28;20024;-66
2024/02/14 02:52:12;;;;;;;0.50;0.50;;;;;;;1.81;100.00;100219.28;5067379;28;20508;-67
2024/02/14 02:54:40;;;;;;;0.45;0.45;;;;;;;1.83;100.00;100221.88;5049439;28;20531;-67
2024/02/14 02:57:07;;;;;;;0.40;0.40;;;;;;;1.84;100.00;100227.03;5067253;28;20052;-67
2024/02/14 02:59:32;;;;;;;0.50;0.50;;;;;;;1.77;100.00;100217.50;5067532;28;20037;-67
2024/02/14 03:01:58;;;;;;;0.47;0.47;;;;;;;1.86;100.00;100232.19;5067364;28;20021;-67
2024/02/14 03:04:24;;;;;;;0.40;0.40;;;;;;;1.84;100.00;100223.59;5067374;28;20025;-67
2024/02/14 03:06:50;;;;;;;0.43;0.43;;;;;;;1.89;100.00;100228.84;5067261;28;20233;-67
2024/02/14 03:09:17;;;;;;;0.47;0.47;;;;;;;1.89;100.00;100227.16;5067088;28;20491;-67
2024/02/14 03:11:46;;;;;;;0.40;0.40;;;;;;;1.91;100.00;100235.75;5067332;28;20055;-67
2024/02/14 03:14:11;;;;;;;0.40;0.40;;;;;;;1.95;100.00;100232.41;5067093;28;20029;-67
2024/02/14 03:16:37;;;;;;;0.40;0.40;;;;;;;1.98;100.00;100235.06;5067179;28;20078;-67
2024/02/14 03:19:03;;;;;;;0.40;0.40;;;;;;;2.00;100.00;100236.81;5049124;28;20088;-67
2024/02/14 03:21:29;;;;;;;0.40;0.40;;;;;;;2.04;100.00;100238.59;5048868;28;20047;-67
2024/02/14 03:23:55;;;;;;;0.40;0.40;;;;;;;2.03;100.00;100235.16;5067048;28;20048;-67
2024/02/14 03:26:20;;;;;;;0.40;0.40;;;;;;;1.97;100.00;100233.34;5048902;28;20551;-67
2024/02/14 03:28:45;;;;;;;0.40;0.40;;;;;;;1.93;100.00;100236.63;5066819;28;20048;-68
2024/02/14 03:31:14;;;;;;;0.40;0.40;;;;;;;1.90;100.00;100239.13;5067053;28;20024;-68
2024/02/14 03:33:39;;;;;;;0.40;0.40;;;;;;;1.85;100.00;100239.00;5066582;28;20080;-67
2024/02/14 03:36:05;;;;;;;0.40;0.40;;;;;;;1.82;100.00;100235.53;5066500;28;20051;-66
2024/02/14 03:38:31;;;;;;;0.50;0.50;;;;;;;1.82;100.00;100232.97;5066368;28;20031;-67
2024/02/14 03:40:56;;;;;;;0.40;0.40;;;;;;;1.83;100.00;100229.56;5066578;28;20021;-66
2024/02/14 03:43:23;;;;;;;0.50;0.50;;;;;;;1.84;100.00;100233.84;5066714;28;20047;-66
2024/02/14 03:45:49;;;;;;;0.40;0.40;;;;;;;1.87;100.00;100231.38;5066808;28;20092;-67
2024/02/14 03:48:14;;;;;;;0.40;0.40;;;;;;;1.90;100.00;100236.56;5066694;28;20021;-66
2024/02/14 03:50:40;;;;;;;0.40;0.40;;;;;;;1.85;100.00;100239.00;5048129;28;20021;-67
2024/02/14 03:53:05;;;;;;;0.50;0.50;;;;;;;1.88;100.00;100245.03;5066481;28;20033;-67
2024/02/14 03:55:31;;;;;;;0.40;0.40;;;;;;;1.81;100.00;100237.22;5066317;28;20029;-66
2024/02/14 03:57:56;;;;;;;0.50;0.50;;;;;;;1.77;100.00;100242.22;5048182;28;20108;-68
2024/02/14 04:00:22;;;;;;;0.40;0.40;;;;;;;1.77;100.00;100237.09;5065105;28;20025;-67
2024/02/14 04:02:48;;;;;;;0.40;0.40;;;;;;;1.76;100.00;100240.50;5066195;28;20076;-67
2024/02/14 04:05:14;;;;;;;0.40;0.40;;;;;;;1.75;100.00;100234.50;5066122;28;20044;-68
2024/02/14 04:07:39;;;;;;;0.50;0.50;;;;;;;1.73;100.00;100237.03;5066187;28;20040;-68
2024/02/14 04:10:05;;;;;;;0.40;0.40;;;;;;;1.67;100.00;100249.66;5066104;28;20029;-67
2024/02/14 04:12:31;;;;;;;0.40;0.40;;;;;;;1.65;100.00;100247.88;5065975;28;20024;-67
2024/02/14 04:14:56;;;;;;;0.50;0.50;;;;;;;1.59;100.00;100244.34;5066108;28;20032;-67
2024/02/14 04:17:22;;;;;;;0.40;0.40;;;;;;;1.56;100.00;100249.41;5065961;28;20027;-67
2024/02/14 04:19:47;;;;;;;0.43;0.43;;;;;;;1.53;100.00;100243.31;5048064;28;20017;-67
2024/02/14 04:22:12;;;;;;;0.40;0.40;;;;;;;1.50;100.00;100251.81;5065730;28;20110;-67
2024/02/14 04:24:38;;;;;;;0.50;0.50;;;;;;;1.47;100.00;100244.88;5065919;28;20090;-67
2024/02/14 04:27:04;;;;;;;0.40;0.40;;;;;;;1.46;100.00;100247.41;5065697;28;20021;-68
2024/02/14 04:29:32;;;;;;;0.40;0.40;;;;;;;1.48;100.00;100246.63;5065567;28;20031;-67
2024/02/14 04:31:58;;;;;;;0.50;0.50;;;;;;;1.46;100.00;100245.72;5047764;28;20049;-67
2024/02/14 04:34:23;;;;;;;0.50;0.50;;;;;;;1.48;100.00;100249.19;5065535;28;20032;-66
2024/02/14 04:36:49;;;;;;;0.50;0.50;;;;;;;1.46;100.00;100244.84;5065602;28;20024;-67
2024/02/14 04:39:14;;;;;;;0.40;0.40;;;;;;;1.50;100.00;100258.59;5065456;28;20085;-67
2024/02/14 04:41:39;;;;;;;0.40;0.40;;;;;;;1.47;100.00;100257.69;5065639;28;20068;-68
2024/02/14 04:44:07;;;;;;;0.40;0.40;;;;;;;1.49;100.00;100255.16;5065576;28;20049;-67
2024/02/14 04:46:34;;;;;;;0.43;0.43;;;;;;;1.49;100.00;100257.72;5047455;28;20440;-67
2024/02/14 04:49:02;;;;;;;0.40;0.40;;;;;;;1.48;100.00;100256.00;5047283;28;20021;-67
2024/02/14 04:51:32;;;;;;;0.40;0.40;;;;;;;1.47;100.00;100254.28;5065428;28;20021;-67
2024/02/14 04:54:00;;;;;;;0.47;0.47;;;;;;;1.52;100.00;100264.63;5047613;28;20032;-67
2024/02/14 04:56:26;;;;;;;0.40;0.40;;;;;;;1.53;100.00;100257.00;5065094;28;20053;-68
2024/02/14 04:58:53;;;;;;;0.50;0.50;;;;;;;1.50;100.00;100256.03;5047423;28;20389;-67
2024/02/14 05:01:19;;;;;;;0.40;0.40;;;;;;;1.53;100.00;100264.66;5065231;28;20445;-67
2024/02/14 05:03:44;;;;;;;0.40;0.40;;;;;;;1.55;100.00;100262.16;5065129;28;20450;-67
2024/02/14 05:06:09;;;;;;;0.43;0.43;;;;;;;1.54;100.00;100257.84;5064833;28;20036;-67
2024/02/14 05:08:35;;;;;;;0.50;0.50;;;;;;;1.55;100.00;100264.72;5064912;28;20078;-66
2024/02/14 05:11:00;;;;;;;0.50;0.50;;;;;;;1.54;100.00;100258.72;5065271;28;20040;-68
2024/02/14 05:13:26;;;;;;;0.50;0.50;;;;;;;1.55;100.00;100267.28;5065064;28;20081;-66
2024/02/14 05:15:51;;;;;;;0.45;0.45;;;;;;;1.53;100.00;100264.66;5046902;28;20025;-67
2024/02/14 05:18:16;;;;;;;0.45;0.45;;;;;;;1.51;100.00;100257.75;5064919;28;20104;-67
2024/02/14 05:20:42;;;;;;;0.50;0.50;;;;;;;1.54;100.00;100262.97;5064923;28;20021;-67
2024/02/14 05:23:07;;;;;;;0.50;0.50;;;;;;;1.53;100.00;100266.34;5064909;28;20029;-67
2024/02/14 05:25:33;;;;;;;0.50;0.50;;;;;;;1.52;100.00;100269.75;5047266;28;20020;-67
2024/02/14 05:27:59;;;;;;;0.45;0.45;;;;;;;1.54;100.00;100270.63;5046754;28;20064;-68
2024/02/14 05:30:24;;;;;;;0.50;0.50;;;;;;;1.54;100.00;100271.50;5065059;28;20033;-69
2024/02/14 05:32:52;;;;;;;0.40;0.40;;;;;;;1.56;100.00;100276.66;5064903;28;20052;-68
2024/02/14 05:35:17;;;;;;;0.40;0.40;;;;;;;1.54;100.00;100273.19;5064258;28;20404;-67
2024/02/14 05:37:43;;;;;;;1.02;1.02;;;;;;;1.55;100.00;100277.50;5046800;28;20063;-66
2024/02/14 05:40:08;;;;;;;0.50;0.50;;;;;;;1.55;100.00;100282.63;5064229;28;20021;-67
2024/02/14 05:42:34;;;;;;;0.50;0.50;;;;;;;1.57;100.00;100276.72;5064907;28;20075;-67
2024/02/14 05:45:00;;;;;;;0.40;0.40;;;;;;;1.56;100.00;100271.56;5065033;28;20422;-67
2024/02/14 05:47:25;;;;;;;0.45;0.45;;;;;;;1.44;100.00;100261.84;5046525;28;20025;-68
2024/02/14 05:49:51;;;;;;;0.50;0.50;;;;;;;1.55;100.00;100280.06;5064900;28;20052;-66
2024/02/14 05:52:18;;;;;;;0.40;0.40;;;;;;;1.58;100.00;100288.66;5064798;28;20025;-67
2024/02/14 05:54:43;;;;;;;0.40;0.40;;;;;;;1.59;100.00;100292.09;5064569;28;20021;-67
2024/02/14 05:57:08;;;;;;;0.40;0.40;;;;;;;1.61;100.00;100293.88;5064445;28;20052;-67
2024/02/14 05:59:34;;;;;;;0.45;0.45;;;;;;;1.61;100.00;100300.69;5064784;28;20028;-67
2024/02/14 06:01:59;;;;;;;0.43;0.43;;;;;;;1.60;100.00;100292.13;5064599;28;20385;-67
2024/02/14 06:04:24;;;;;;;0.50;0.50;;;;;;;1.60;100.00;100284.47;5064507;28;20017;-66
2024/02/14 06:06:50;;;;;;;0.40;0.40;;;;;;;1.61;100.00;100291.31;5064426;28;20021;-66
2024/02/14 06:09:15;;;;;;;0.40;0.40;;;;;;;1.67;100.00;100303.41;5046473;28;20035;-66
2024/02/14 06:11:42;;;;;;;0.82;0.80;;;;;;;1.66;100.00;100304.22;5064568;28;20017;-66
2024/02/14 06:14:08;;;;;;;0.40;0.40;;;;;;;1.66;100.00;100306.78;5064664;28;20031;-66
2024/02/14 06:16:34;;;;;;;0.40;0.40;;;;;;;1.63;100.00;100287.94;5064593;28;20436;-68
2024/02/14 06:19:00;;;;;;;0.40;0.40;;;;;;;1.69;100.00;100300.91;5064683;28;20025;-67
2024/02/14 06:21:26;;;;;;;0.40;0.40;;;;;;;1.67;100.00;100300.84;5064225;28;20025;-67
2024/02/14 06:23:52;;;;;;;0.40;0.40;;;;;;;1.71;100.00;100297.53;5048244;28;20032;-67
2024/02/14 06:26:17;;;;;;;0.40;0.40;;;;;;;1.78;100.00;100313.06;5068009;28;20048;-67
2024/02/14 06:28:44;;;;;;;0.45;0.45;;;;;;;1.79;100.00;100309.69;5049878;28;20041;-68
2024/02/14 06:31:09;;;;;;;0.40;0.40;;;;;;;1.80;100.00;100308.84;5068245;28;20021;-67
2024/02/14 06:33:35;;;;;;;0.40;0.40;;;;;;;1.77;100.00;100306.22;5068077;28;20025;-66
2024/02/14 06:36:01;;;;;;;0.40;0.40;;;;;;;1.78;100.00;100318.16;5067758;28;20118;-66
2024/02/14 06:38:26;;;;;;;0.40;0.40;;;;;;;1.80;100.00;100313.97;5067896;28;20108;-66
2024/02/14 06:40:51;;;;;;;0.40;0.40;;;;;;;1.85;100.00;100320.09;5067936;28;20017;-66
2024/02/14 06:43:17;;;;;;;0.50;0.50;;;;;;;1.86;100.00;100329.50;5067870;28;20107;-67
2024/02/14 06:45:43;;;;;;;0.50;0.50;;;;;;;1.83;100.00;100324.28;5049789;28;20047;-67
2024/02/14 06:48:09;;;;;;;0.50;0.50;;;;;;;1.78;100.00;100330.97;5049650;28;20036;-66
2024/02/14 06:50:34;;;;;;;0.50;0.50;;;;;;;1.72;100.00;100317.22;5049523;28;20025;-67
2024/02/14 06:53:00;;;;;;;0.40;0.40;;;;;;;1.78;100.00;100329.28;5050012;28;20021;-67
2024/02/14 06:55:26;;;;;;;0.40;0.40;;;;;;;1.79;100.00;100336.13;5049602;28;20079;-67
2024/02/14 06:57:52;;;;;;;0.50;0.50;;;;;;;1.77;100.00;100331.81;5066856;28;20113;-67
2024/02/14 07:00:18;;;;;;;0.40;0.40;;;;;;;1.78;100.00;100333.53;5067728;28;20080;-67
2024/02/14 07:02:46;;;;;;;0.63;0.63;;;;;;;1.79;100.00;100345.53;5067809;28;20028;-67
2024/02/14 07:05:14;;;;;;;0.50;0.50;;;;;;;1.84;100.00;100341.38;5067355;28;20017;-66
2024/02/14 07:07:39;;;;;;;0.70;0.70;;;;;;;1.86;100.00;100344.84;5067232;28;20075;-67
2024/02/14 07:10:06;;;;;;;0.50;0.50;;;;;;;1.85;100.00;100346.53;5067605;28;20021;-67
2024/02/14 07:12:31;;;;;;;0.40;0.40;;;;;;;1.88;100.00;100352.56;5049593;28;20025;-67
2024/02/14 07:14:57;;;;;;;0.50;0.50;;;;;;;1.84;100.00;100343.94;5067224;28;20032;-68
2024/02/14 07:17:22;;;;;;;0.40;0.40;;;;;;;1.86;100.00;100349.97;5066995;28;20084;-68
2024/02/14 07:19:49;;;;;;;0.50;0.50;;;;;;;1.87;100.00;100346.56;5067207;28;20024;-67
2024/02/14 07:22:15;;;;;;;0.40;0.40;;;;;;;1.87;100.00;100350.84;5048812;28;20021;-67
2024/02/14 07:24:42;;;;;;;0.40;0.40;;;;;;;1.84;100.00;100341.38;5067028;28;20025;-67
2024/02/14 07:27:07;;;;;;;0.50;0.50;;;;;;;1.85;100.00;100345.69;5049257;28;20021;-68
2024/02/14 07:29:33;;;;;;;0.40;0.40;;;;;;;1.91;100.00;100353.53;5048829;28;20083;-67
2024/02/14 07:32:01;;;;;;;0.50;0.50;;;;;;;1.93;100.00;100356.97;5066959;28;20448;-67
2024/02/14 07:34:27;;;;;;;0.50;0.50;;;;;;;1.89;100.00;100354.28;5066143;28;20067;-67
2024/02/14 07:36:52;;;;;;;0.40;0.40;;;;;;;1.90;100.00;100353.47;5066270;28;20381;-67
2024/02/14 07:39:18;;;;;;;0.40;0.40;;;;;;;1.90;100.00;100354.34;5066101;28;20072;-67
2024/02/14 07:41:43;;;;;;;0.40;0.40;;;;;;;1.86;100.00;100347.41;5066342;28;20041;-67
2024/02/14 07:44:09;;;;;;;0.57;0.57;;;;;;;1.95;100.00;100357.03;5066095;28;20464;-66
2024/02/14 07:46:34;;;;;;;0.47;0.47;;;;;;;1.94;100.00;100356.16;5066644;28;20063;-67
2024/02/14 07:48:59;;;;;;;0.40;0.40;;;;;;;1.96;100.00;100359.66;5048634;28;20028;-67
2024/02/14 07:51:25;;;;;;;0.40;0.40;;;;;;;1.97;100.00;100353.69;5066611;28;20029;-67
2024/02/14 07:53:51;;;;;;;0.50;0.50;;;;;;;1.99;100.00;100353.72;5048869;28;20024;-67
2024/02/14 07:56:18;;;;;;;0.45;0.45;;;;;;;1.97;100.00;100356.25;5066056;28;20044;-67
2024/02/14 07:58:43;;;;;;;0.40;0.40;;;;;;;1.97;100.00;100350.25;5048697;28;20020;-67
2024/02/14 08:01:09;;;;;;;0.40;0.40;;;;;;;1.97;100.00;100356.25;5066762;28;20029;-67
2024/02/14 08:03:34;;;;;;;0.40;0.40;;;;;;;1.95;100.00;100363.00;5066367;28;20028;-67
2024/02/14 08:06:00;;;;;;;0.40;0.40;;;;;;;1.95;100.00;100359.59;5048255;28;20017;-66
2024/02/14 08:08:27;;;;;;;0.40;0.40;;;;;;;1.94;100.00;100358.72;5066408;28;20017;-67
2024/02/14 08:10:52;;;;;;;0.40;0.40;;;;;;;1.97;100.00;100363.94;5066277;28;20055;-67
2024/02/14 08:13:18;;;;;;;0.40;0.40;;;;;;;1.96;100.00;100367.31;5066342;28;20025;-67
2024/02/14 08:15:43;;;;;;;0.40;0.40;;;;;;;2.02;100.00;100368.28;5066190;28;20017;-67
2024/02/14 08:18:09;;;;;;;0.43;0.43;;;;;;;2.03;100.00;100375.16;5047960;28;20017;-68
2024/02/14 08:20:34;;;;;;;0.40;0.40;;;;;;;1.98;100.00;100365.66;5047933;28;20029;-68
2024/02/14 08:22:59;;;;;;;0.40;0.40;;;;;;;2.00;100.00;100375.94;5066133;28;20021;-66
2024/02/14 08:25:26;;;;;;;0.50;0.50;;;;;;;1.96;100.00;100374.13;5065998;28;20108;-67
2024/02/14 08:27:52;;;;;;;0.50;0.50;;;;;;;1.95;100.00;100375.81;5066007;28;20052;-69
2024/02/14 08:30:17;;;;;;;1.08;1.08;;;;;;;1.90;100.00;100374.81;5066047;28;20021;-68
2024/02/14 08:32:42;;;;;;;0.50;0.50;;;;;;;1.91;100.00;100379.13;5065888;28;20104;-68
2024/02/14 08:35:13;;;;;;;0.40;0.40;;;;;;;1.92;100.00;100378.28;5065670;28;20021;-67
2024/02/14 08:37:40;;;;;;;0.50;0.50;;;;;;;1.94;100.00;100376.66;5065338;28;20017;-68
2024/02/14 08:40:06;;;;;;;0.45;0.45;;;;;;;2.04;100.00;100385.44;5065948;28;20028;-67
2024/02/14 08:42:33;;;;;;;0.40;0.40;;;;;;;2.09;100.00;100380.44;5065687;28;20024;-68
2024/02/14 08:44:58;;;;;;;0.50;0.50;;;;;;;2.07;100.00;100376.97;5065683;28;20020;-67
2024/02/14 08:47:24;;;;;;;0.40;0.40;;;;;;;2.05;100.00;100368.38;5047803;28;20512;-67
2024/02/14 08:49:49;;;;;;;0.50;0.50;;;;;;;2.10;100.00;100375.34;5065686;28;20036;-67
2024/02/14 08:52:14;;;;;;;0.40;0.40;;;;;;;2.06;100.00;100380.38;5065172;28;20025;-68
2024/02/14 08:54:40;;;;;;;0.50;0.50;;;;;;;2.01;100.00;100387.06;5065212;28;20052;-68
2024/02/14 08:57:05;;;;;;;0.40;0.40;;;;;;;1.92;100.00;100379.97;5065091;28;20044;-67
2024/02/14 08:59:30;;;;;;;0.40;0.40;;;;;;;1.92;100.00;100388.53;5065398;28;20376;-67
2024/02/14 09:01:56;;;;;;;0.50;0.50;;;;;;;1.91;100.00;100386.81;5064270;28;20035;-67
2024/02/14 09:04:22;;;;;;;0.50;0.50;;;;;;;1.87;100.00;100392.66;5075243;23;20139;-64
2024/02/14 09:06:47;;;;;;;0.50;0.50;;;;;;;1.85;100.00;100386.66;5071360;23;20049;-67
2024/02/14 09:09:15;;;;;;;0.50;0.50;;;;;;;1.85;100.00;100402.00;5046966;28;20031;-67
2024/02/14 09:11:41;;;;;;;0.40;0.40;;;;;;;1.83;100.00;100388.28;5046817;28;20024;-68
2024/02/14 09:14:06;;;;;;;0.50;0.50;;;;;;;1.82;100.00;100397.66;5047466;28;20376;-66
2024/02/14 09:16:33;;;;;;;0.50;0.50;;;;;;;1.68;100.00;100368.25;5102531;22;20061;-64
2024/02/14 09:18:59;;;;;;;0.40;0.40;;;;;;;1.82;100.00;100392.53;5068680;23;20048;-67
2024/02/14 09:21:25;;;;;;;0.43;0.43;;;;;;;1.84;100.00;100390.00;5064626;28;20149;-67
2024/02/14 09:23:50;;;;;;;0.50;0.50;;;;;;;1.87;100.00;100384.97;5046676;28;20033;-67
2024/02/14 09:26:16;;;;;;;0.40;0.40;;;;;;;1.91;100.00;100396.19;5064252;28;20024;-67
2024/02/14 09:28:42;;;;;;;0.50;0.50;;;;;;;1.92;100.00;100392.78;5064250;28;20055;-67
2024/02/14 09:31:09;;;;;;;0.40;0.40;;;;;;;1.94;100.00;100389.44;5064929;28;20028;-67
2024/02/14 09:33:36;;;;;;;0.40;0.40;;;;;;;1.98;100.00;100393.81;5064860;28;20021;-67
2024/02/14 09:36:02;;;;;;;0.40;0.40;;;;;;;2.04;100.00;100402.50;5064728;28;20023;-68
2024/02/14 09:38:27;;;;;;;0.50;0.50;;;;;;;2.07;100.00;100400.91;5064753;28;20084;-67
2024/02/14 09:41:22;;;;;;;0.50;0.50;;;;;;;2.13;100.00;100402.72;5064890;28;20017;-67
2024/02/14 09:43:47;;;;;;;0.50;0.50;;;;;;;2.13;100.00;100407.84;5046275;28;20050;-67
2024/02/14 09:46:16;;;;;;;0.40;0.40;;;;;;;2.17;100.00;100408.81;5064328;28;20068;-67
2024/02/14 09:48:45;;;;;;;0.40;0.40;;;;;;;2.13;100.00;100402.72;5046781;28;20025;-67
2024/02/14 09:51:12;;;;;;;0.50;0.50;;;;;;;2.18;100.00;100402.84;5064619;28;20090;-67
2024/02/14 09:53:41;;;;;;;0.50;0.50;;;;;;;2.21;100.00;100411.50;5064590;28;20115;-67
2024/02/14 09:56:09;;;;;;;0.50;0.50;;;;;;;2.18;100.00;100400.28;5046959;28;20032;-67
2024/02/14 09:58:36;;;;;;;0.50;0.50;;;;;;;2.19;100.00;100408.00;5066505;28;20108;-67
2024/02/14 10:01:02;;;;;;;0.40;0.40;;;;;;;2.23;100.00;100404.72;5051030;28;20067;-68
2024/02/14 10:03:27;;;;;;;0.40;0.40;;;;;;;2.21;100.00;100396.13;5069002;28;20025;-67
2024/02/14 10:05:52;;;;;;;0.40;0.40;;;;;;;2.28;100.00;100401.41;5050565;28;20472;-67
2024/02/14 10:08:20;;;;;;;1.65;1.58;;;;;;;2.27;100.00;100403.09;5068177;28;20064;-68
2024/02/14 10:10:46;;;;;;;1.88;1.77;;;;;;;2.32;100.00;100405.75;5068310;28;20121;-67
2024/02/14 10:13:11;;;;;;;0.47;0.47;;;;;;;2.37;100.00;100404.19;5068539;28;20025;-68
2024/02/14 10:15:36;;;;;;;0.40;0.40;;;;;;;2.43;100.00;100411.19;5050223;28;20033;-68
2024/02/14 10:18:03;;;;;;;0.40;0.40;;;;;;;2.44;100.00;100411.22;5068084;28;20119;-67
2024/02/14 10:20:33;;;;;;;0.40;0.40;;;;;;;2.43;100.00;100417.16;5068138;28;20044;-67
2024/02/14 10:23:03;;;;;;;0.40;0.40;;;;;;;2.44;100.00;100418.91;5050524;28;20029;-67
2024/02/14 10:25:34;;;;;;;0.50;0.50;;;;;;;2.43;100.00;100421.44;5067918;28;20024;-68
2024/02/14 10:28:08;;;;;;;0.50;0.50;;;;;;;2.40;100.00;100416.19;5068188;28;20109;-67
2024/02/14 10:30:40;;;;;;;0.40;0.40;;;;;;;2.42;100.00;100420.56;5068184;28;20029;-68
2024/02/14 10:33:07;;;;;;;0.40;0.40;;;;;;;2.47;100.00;100413.88;5068107;28;20025;-68
2024/02/14 10:35:33;;;;;;;0.40;0.40;;;;;;;2.46;100.00;100406.97;5067925;28;20045;-68
2024/02/14 10:38:01;;;;;;;0.40;0.40;;;;;;;2.54;100.00;100425.09;5067848;28;20017;-68
2024/02/14 10:40:32;;;;;;;0.40;0.40;;;;;;;2.55;100.00;100413.16;5068022;28;20048;-68
2024/02/14 10:42:58;;;;;;;0.50;0.50;;;;;;;2.58;100.00;100409.00;5067993;28;20108;-68
2024/02/14 10:45:25;;;;;;;0.40;0.40;;;;;;;2.62;100.00;100415.03;5068025;28;20021;-68
2024/02/14 10:47:51;;;;;;;0.40;0.40;;;;;;;2.63;100.00;100418.47;5067900;28;20020;-68
2024/02/14 10:50:17;;;;;;;0.40;0.40;;;;;;;2.61;100.00;100405.63;5049977;28;20070;-68
2024/02/14 10:52:47;;;;;;;0.47;0.47;;;;;;;2.63;100.00;100408.22;5049574;28;20232;-67
2024/02/14 10:55:12;;;;;;;0.40;0.40;;;;;;;2.62;100.00;100407.34;5067797;28;20036;-67
2024/02/14 10:57:38;;;;;;;0.40;0.40;;;;;;;2.71;100.00;100424.66;5067542;28;20025;-67
2024/02/14 11:00:09;;;;;;;0.40;0.40;;;;;;;2.70;100.00;100415.25;5067882;28;20025;-67
2024/02/14 11:02:36;;;;;;;0.50;0.50;;;;;;;2.64;100.00;100408.25;5067757;28;20104;-67
2024/02/14 11:05:02;;;;;;;0.40;0.40;;;;;;;2.64;100.00;100410.84;5049600;28;20024;-67
2024/02/14 11:07:28;;;;;;;0.40;0.40;;;;;;;2.65;100.00;100411.72;5049274;28;20097;-68
2024/02/14 11:10:07;;;;;;;0.50;0.50;;;;;;;2.63;100.00;100411.66;5067342;28;20021;-68
2024/02/14 11:12:36;;;;;;;0.40;0.40;;;;;;;2.63;100.00;100416.78;5067387;28;20029;-68
2024/02/14 11:15:10;;;;;;;0.40;0.40;;;;;;;2.55;100.00;100401.22;5049383;28;20032;-67
2024/02/14 11:17:36;;;;;;;0.57;0.57;;;;;;;2.64;100.00;100415.97;5067289;28;20140;-68
2024/02/14 11:20:15;;;;;;;0.40;0.40;;;;;;;2.66;100.00;100411.75;5067072;28;20496;-68